Saint Petersburg, FL (33706)

6:04 AM EST on November 23, 2014 (GMT -0500)
Pasadena on the Gulf-Mango Ave | Change Station
CLOSE
Current Station
Personal Weather Station
Location: St Petersburg, FL
Elevation: 13 ft
Nearby Weather Stations
Active Advisory: Coastal Hazard Statement

Elev 13 ft 27.76 °N, 82.73 °W | Updated 11 seconds ago

Overcast
Overcast
70.1 °F
Feels Like 70.1 °F
N
2.0
Wind Variable Wind from ENE
Gusts 2.0 mph

Today
High -- | Low -- °F
--% Chance of Precip.
Yesterday
High -- | Low -- °F
Precip. -- in
6:58 AM 5:36 PM
New Moon, 1% visible
Pressure 29.96 in
Visibility 7.0 miles
Clouds Overcast 1200 ft
Dew Point 69 °F
Humidity 97%
Rainfall 0.00 in
Snow Depth Not available.
UV 0 out of 12
Pollen 4.50 out of 12
Air Quality Not available.
Flu Activity Not available.
METAR KSPG 231053Z AUTO 15007KT 7SM OVC012 20/19 A2996 RMK AO2 SLP143 T02000189

More Conditions Fewer Conditions

Pressure 29.96 in
Visibility 7.0 miles
Clouds Overcast 1200 ft
Dew Point 69 °F
Humidity 97%
Rainfall 0.00 in
Snow Depth Not available.
UV 0 out of 12
Pollen 4.50 out of 12
Air Quality Not available.
Flu Activity Not available.
METAR KSPG 231053Z AUTO 15007KT 7SM OVC012 20/19 A2996 RMK AO2 SLP143 T02000189

More Conditions Fewer Conditions

10-Day Weather Forecast

Almanac

Astronomy

Nov. 23, 2014 Rise Set
Actual Time
Civil Twilight
Nautical Twilight
Astronomical Twilight
Moon
Length of Visible Light
Length of Day
Tomorrow will be .
, % of the Moon is Illuminated

Today's Extremes

State Highs State Lows

Community

WunderPhotos

Upload Photos

1,773,033 photos uploaded!

WunderBlogs® & News

Nearby

Air Quality

  Air Quality AQ Index Pollutant
Not available.

Snow Depth

Station Depth Elevation

Earthquake Activity

City Distance Mag. Time & Date
Minimum magnitude displayed is 2.5.

Coastal Water Temperatures

Place Temperature

Nearby Weather Stations